Flight Track Log - Related Links

Times and Time Zones

All times are in EST time to prevent confusion due to time zone crossing. See the OPT438 flight status page for this flight to view local times or setup timezone preferences in your user account.

Time Position Orientation Groundspeed Altitude Reporting Facility
EST Latitude Longitude Course Direction KTS MPH feet Rate Location/Type
Fri 10:22:50 AM 32.9667 -96.8333 107° East 171 197 1,400  Level Dallas / Fort Worth TRACON
Fri 10:23:44 AM 32.9500 -96.7667 107° East 246 283 2,400 1,737 Climbing Dallas / Fort Worth TRACON
Fri 10:24:44 AM 32.9833 -96.7000 59° Northeast 290 334 4,700 2,524 Climbing Dallas / Fort Worth TRACON
Fri 10:25:50 AM 33.0000 -96.6000 79° East 307 353 7,700 2,566 Climbing Dallas / Fort Worth TRACON
Fri 10:27:09 AM 33.0903 -96.6433 338° Northwest 278 320 10,900 2,255 Climbing Fort Worth Center
Fri 10:28:11 AM 33.1736 -96.6650 348° North 308 354 13,000 2,081 Climbing Fort Worth Center
Fri 10:29:13 AM 33.2692 -96.6847 350° North 325 374 15,200 2,032 Climbing Fort Worth Center
Fri 10:30:15 AM 33.3619 -96.6614 12° North 338 389 17,200 2,081 Climbing Fort Worth Center
Fri 10:31:17 AM 33.4606 -96.6375 11° North 336 387 19,500 2,081 Climbing Fort Worth Center
Fri 10:32:19 AM 33.5475 -96.6175 11° North 320 368 21,500 1,839 Climbing Fort Worth Center
Fri 10:33:21 AM 33.6411 -96.5942 12° North 317 365 23,300 1,536 Climbing Fort Worth Center
Fri 10:34:24 AM 33.7303 -96.5731 11° North 332 382 24,700 1,392 Climbing Fort Worth Center
Fri 10:35:26 AM 33.8231 -96.5517 11° North 340 391 26,200 1,452 Climbing Fort Worth Center
Fri 10:36:28 AM 33.9178 -96.5297 11° North 346 398 27,700 1,452 Climbing Fort Worth Center
Fri 10:37:30 AM 34.0142 -96.5064 11° North 351 404 29,200 1,790 Climbing Fort Worth Center
Fri 10:38:32 AM 34.1072 -96.4828 12° North 345 397 31,400 2,468 Climbing Fort Worth Center
Fri 10:39:34 AM 34.2058 -96.4586 11° North 303 349 34,300 1,935 Climbing Fort Worth Center
Fri 10:40:36 AM 34.2861 -96.4389 11° North 297 342 35,400 919 Climbing Fort Worth Center
Fri 10:41:38 AM 34.3706 -96.4181 12° North 307 353 36,200 726 Climbing Fort Worth Center
Fri 10:42:40 AM 34.4583 -96.3978 11° North 320 368 36,900 726 Climbing Fort Worth Center
Fri 10:43:42 AM 34.5494 -96.3742 12° North 333 383 37,700 823 Climbing Fort Worth Center
Fri 10:44:44 AM 34.6619 -96.3464 11° North 344 396 38,600 629 Climbing Fort Worth Center
Fri 10:45:46 AM 34.7575 -96.3231 11° North 350 403 39,000 194 Climbing Fort Worth Center
Fri 10:46:48 AM 34.8594 -96.2989 11° North 370 426 39,000  Level Fort Worth Center
Fri 10:47:50 AM 34.9625 -96.2736 11° North 379 436 39,000  Level Fort Worth Center
Fri 10:48:53 AM 35.0631 -96.2497 11° North 375 432 39,000  Level Fort Worth Center
Fri 10:49:55 AM 35.1858 -96.2181 12° North 375 432 39,000  Level Fort Worth Center
Fri 10:50:57 AM 35.2883 -96.1925 12° North 376 433 39,000  Level Fort Worth Center
Fri 10:51:59 AM 35.3886 -96.1675 11° North 371 427 39,000  Level Fort Worth Center
Fri 10:52:34 AM 35.4453 -96.1519 13° North 366 421 39,000  Level Kansas City Center
Fri 10:53:36 AM 35.5436 -96.1292 11° North 363 418 39,000  Level Kansas City Center
Fri 10:54:38 AM 35.6397 -96.1039 12° North 357 411 39,000  Level Kansas City Center
Fri 10:55:40 AM 35.7369 -96.0803 11° North 358 412 39,000  Level Kansas City Center
Fri 10:56:42 AM 35.8425 -96.0533 12° North 360 414 39,000  Level Kansas City Center
Fri 10:57:44 AM 35.9419 -96.0286 11° North 361 415 39,000  Level Kansas City Center
Fri 10:58:46 AM 36.0419 -96.0036 11° North 363 418 39,000  Level Kansas City Center
Fri 10:59:48 AM 36.1608 -95.9736 12° North 361 415 39,000  Level Kansas City Center
Fri 11:00:50 AM 36.2581 -95.9492 11° North 356 410 39,000  Level Kansas City Center
Fri 11:01:52 AM 36.3561 -95.9247 11° North 356 410 39,000  Level Kansas City Center
Fri 11:02:54 AM 36.4542 -95.8986 12° North 356 410 39,000  Level Kansas City Center
Fri 11:03:56 AM 36.5519 -95.8731 12° North 355 409 39,000  Level Kansas City Center
Fri 11:04:58 AM 36.6503 -95.8478 12° North 355 409 39,000  Level Kansas City Center
Fri 11:06:00 AM 36.7483 -95.8225 12° North 356 410 39,000  Level Kansas City Center
Fri 11:07:02 AM 36.8464 -95.7967 12° North 357 411 39,000  Level Kansas City Center
Fri 11:08:04 AM 36.9633 -95.7669 11° North 355 409 39,000  Level Kansas City Center
Fri 11:09:06 AM 37.0594 -95.7422 12° North 352 405 39,000  Level Kansas City Center
Fri 11:10:08 AM 37.1533 -95.7178 12° North 347 399 39,000 -484 Level Kansas City Center
Fri 11:11:10 AM 37.2497 -95.6931 12° North 348 400 38,000 -968 Descending Kansas City Center
Fri 11:12:12 AM 37.3517 -95.6675 11° North 359 413 37,000 -968 Descending Kansas City Center
Fri 11:13:14 AM 37.4581 -95.6406 11° North 378 435 36,000 -484 Descending Kansas City Center
Fri 11:14:16 AM 37.5636 -95.6111 12° North 386 444 36,000 -871 Level Kansas City Center
Fri 11:15:18 AM 37.6931 -95.5831 10° North 391 450 34,200 -1,645 Descending Kansas City Center
Fri 11:16:20 AM 37.8022 -95.5694 North 394 453 32,600 -1,790 Descending Kansas City Center
Fri 11:17:22 AM 37.9083 -95.5536 North 386 444 30,500 -1,935 Descending Kansas City Center
Fri 11:18:24 AM 38.0044 -95.5408 North 378 435 28,600 -1,984 Descending Kansas City Center
Fri 11:19:26 AM 38.1178 -95.5239 North 368 423 26,400 -2,081 Descending Kansas City Center
Fri 11:20:28 AM 38.2139 -95.5103 North 362 417 24,300 -2,129 Descending Kansas City Center
Fri 11:21:30 AM 38.3278 -95.4939 North 368 423 22,000 -2,177 Descending Kansas City Center
Fri 11:22:32 AM 38.4319 -95.4778 North 390 449 19,800 -2,226 Descending Kansas City Center
Fri 11:23:34 AM 38.5494 -95.4597 North 381 438 17,400 -1,984 Descending Kansas City Center
Fri 11:24:36 AM 38.6319 -95.4458 North 311 358 15,700 -1,790 Descending Kansas City Center
Fri 11:25:38 AM 38.6931 -95.3544 49° Northeast 316 364 13,700 -1,887 Descending Kansas City Center
Fri 11:26:40 AM 38.7361 -95.2550 61° Northeast 331 381 11,800 -2,016 Descending Kansas City Center
Fri 11:27:43 AM 38.7847 -95.1439 61° Northeast 321 369 9,500 -2,064 Descending Kansas City Center
Fri 11:28:45 AM 38.8189 -95.0603 62° Northeast 281 323 7,500 -1,645 Descending Kansas City Center
Fri 11:29:47 AM 38.8572 -94.9683 62° Northeast 265 305 6,100 -1,161 Descending Kansas City Center
Fri 11:30:49 AM 38.8914 -94.8922 60° Northeast 259 298 5,100 -1,016 Descending Kansas City Center
Fri 11:31:51 AM 38.9322 -94.8094 58° Northeast 249 287 4,000 -532 Descending Kansas City Center
Fri 11:32:53 AM 38.9686 -94.7394 56° Northeast 247 284 4,000 -387 Level Kansas City Center
Fri 11:33:55 AM 39.0247 -94.6850 37° Northeast 229 264 3,200 -968 Descending Kansas City Center
Fri 11:34:57 AM 39.0672 -94.6456 36° Northeast 200 230 2,000 -919 Descending Kansas City Center
Fri 11:35:59 AM 39.0931 -94.6039 51° Northeast 136 157 1,300 -484 Descending Kansas City Center
Fri 11:37:01 AM 39.1189 -94.5908 21° North 122 140 1,000 -290 Descending Kansas City Center

Login

Don't have an account? Register now (free) for customized features, flight alerts, and more!